createdAt,value
2017-11-22T00:01:53.290Z,21.90
2017-11-22T00:04:20.858Z,21.90
2017-11-22T00:06:48.552Z,21.90
2017-11-22T00:09:16.861Z,21.80
2017-11-22T00:11:44.473Z,21.80
2017-11-22T00:14:12.035Z,21.80
2017-11-22T00:16:39.576Z,21.80
2017-11-22T00:19:07.314Z,21.80
2017-11-22T00:21:34.892Z,21.80
2017-11-22T00:24:02.476Z,21.80
2017-11-22T00:26:30.046Z,21.80
2017-11-22T00:28:57.686Z,21.80
2017-11-22T00:31:25.543Z,21.80
2017-11-22T00:33:53.140Z,21.80
2017-11-22T00:36:20.745Z,21.80
2017-11-22T00:38:49.267Z,21.80
2017-11-22T00:41:16.865Z,21.80
2017-11-22T00:43:45.236Z,21.80
2017-11-22T00:46:13.580Z,21.80
2017-11-22T00:48:41.219Z,21.70
2017-11-22T00:51:08.929Z,21.80
2017-11-22T00:53:36.728Z,21.80
2017-11-22T00:56:04.332Z,21.80
2017-11-22T00:58:31.940Z,21.90
2017-11-22T01:00:59.507Z,21.90
2017-11-22T01:03:27.168Z,21.90
2017-11-22T01:05:54.778Z,21.90
2017-11-22T01:08:22.388Z,21.90
2017-11-22T01:10:49.967Z,22.00
2017-11-22T01:13:17.661Z,22.00
2017-11-22T01:15:45.302Z,22.00
2017-11-22T01:18:13.119Z,22.00
2017-11-22T01:20:40.853Z,21.90
2017-11-22T01:23:08.534Z,22.00
2017-11-22T01:25:36.180Z,22.00
2017-11-22T01:28:03.790Z,22.00
2017-11-22T01:30:31.468Z,22.00
2017-11-22T01:32:59.061Z,22.00
2017-11-22T01:35:26.646Z,22.00
2017-11-22T01:37:54.984Z,22.00
2017-11-22T01:40:22.617Z,22.00
2017-11-22T01:42:50.164Z,22.00
2017-11-22T01:45:17.728Z,22.00
2017-11-22T01:47:45.312Z,22.00
2017-11-22T01:50:12.947Z,22.00
2017-11-22T01:52:40.504Z,22.00
2017-11-22T01:55:08.075Z,22.00
2017-11-22T01:57:36.533Z,22.00
2017-11-22T02:00:04.944Z,22.00
2017-11-22T02:02:32.529Z,22.00
2017-11-22T02:05:01.220Z,22.00
2017-11-22T02:07:28.902Z,22.00
2017-11-22T02:09:56.525Z,22.00
2017-11-22T02:12:24.788Z,22.00
2017-11-22T02:14:52.384Z,22.00
2017-11-22T02:17:19.949Z,22.00
2017-11-22T02:19:47.631Z,22.00
2017-11-22T02:22:15.979Z,22.00
2017-11-22T02:24:43.544Z,22.00
2017-11-22T02:27:11.132Z,22.00
2017-11-22T02:29:39.457Z,22.00
2017-11-22T02:32:07.046Z,22.00
2017-11-22T02:34:36.161Z,22.00
2017-11-22T02:37:04.527Z,22.00
2017-11-22T02:39:32.107Z,22.00
2017-11-22T02:42:00.482Z,22.00
2017-11-22T02:44:28.816Z,22.00
2017-11-22T02:46:56.388Z,22.00
2017-11-22T02:49:25.512Z,22.00
2017-11-22T02:51:54.026Z,22.00
2017-11-22T02:54:21.690Z,22.00
2017-11-22T02:56:49.299Z,22.00
2017-11-22T02:59:16.930Z,22.00
2017-11-22T03:01:44.517Z,22.00
2017-11-22T03:04:13.604Z,22.00
2017-11-22T03:06:41.230Z,22.00
2017-11-22T03:09:08.900Z,22.00
2017-11-22T03:11:36.501Z,22.00
2017-11-22T03:14:04.091Z,22.00
2017-11-22T03:16:32.422Z,22.00
2017-11-22T03:19:00.009Z,22.00
2017-11-22T03:21:28.365Z,22.00
2017-11-22T03:23:55.952Z,22.00
2017-11-22T03:26:24.429Z,22.00
2017-11-22T03:28:52.827Z,22.00
2017-11-22T03:31:21.189Z,22.00
2017-11-22T03:33:49.555Z,22.00
2017-11-22T03:36:17.098Z,22.00
2017-11-22T03:38:44.690Z,22.00
2017-11-22T03:41:13.017Z,22.00
2017-11-22T03:43:40.597Z,22.00
2017-11-22T03:46:08.193Z,22.00
2017-11-22T03:48:36.591Z,22.00
2017-11-22T03:51:10.196Z,22.00
2017-11-22T03:53:43.475Z,22.00
2017-11-22T03:56:11.831Z,22.00
2017-11-22T03:58:39.398Z,22.00
2017-11-22T04:01:07.786Z,22.00
2017-11-22T04:03:37.983Z,22.00
2017-11-22T04:06:05.595Z,22.00
2017-11-22T04:08:33.174Z,22.00
2017-11-22T04:11:00.771Z,22.00
2017-11-22T04:13:28.314Z,22.00
2017-11-22T04:15:55.976Z,22.00
2017-11-22T04:18:23.589Z,22.00
2017-11-22T04:20:56.997Z,22.00
2017-11-22T04:23:24.753Z,22.00
2017-11-22T04:25:52.417Z,22.00
2017-11-22T04:28:19.977Z,22.00
2017-11-22T04:30:47.640Z,22.00
2017-11-22T04:33:15.201Z,22.00
2017-11-22T04:35:42.801Z,22.00
2017-11-22T04:38:10.375Z,22.00
2017-11-22T04:40:37.931Z,22.00
2017-11-22T04:43:07.058Z,22.00
2017-11-22T04:45:35.004Z,22.00
2017-11-22T04:48:03.393Z,22.00
2017-11-22T04:50:31.754Z,22.00
2017-11-22T04:52:59.432Z,22.00
2017-11-22T04:55:28.039Z,22.00
2017-11-22T04:57:55.597Z,22.00
2017-11-22T05:00:23.271Z,22.00
2017-11-22T05:02:50.895Z,22.00
2017-11-22T05:05:19.227Z,22.00
2017-11-22T05:07:46.839Z,22.00
2017-11-22T05:10:14.453Z,22.00
2017-11-22T05:12:42.011Z,22.00
2017-11-22T05:15:09.715Z,22.00
2017-11-22T05:17:38.051Z,22.00
2017-11-22T05:20:05.752Z,22.00
2017-11-22T05:22:34.133Z,22.00
2017-11-22T05:25:02.473Z,22.00
2017-11-22T05:27:30.080Z,22.00
2017-11-22T05:29:58.460Z,22.00
2017-11-22T05:32:26.824Z,22.00
2017-11-22T05:34:55.217Z,22.00
2017-11-22T05:37:23.577Z,22.00
2017-11-22T05:39:51.133Z,21.90
2017-11-22T05:42:18.820Z,22.00
2017-11-22T05:44:46.399Z,22.00
2017-11-22T05:47:13.993Z,22.00
2017-11-22T05:49:41.561Z,22.00
2017-11-22T05:52:09.127Z,22.00
2017-11-22T05:54:36.726Z,22.00
2017-11-22T05:57:04.470Z,22.00
2017-11-22T05:59:33.038Z,22.00
2017-11-22T06:02:00.611Z,22.00
2017-11-22T06:04:28.965Z,22.00
2017-11-22T06:06:57.342Z,22.00
2017-11-22T06:09:24.930Z,22.00
2017-11-22T06:11:53.253Z,22.00
2017-11-22T06:14:20.841Z,22.00
2017-11-22T06:16:48.416Z,22.00
2017-11-22T06:19:15.979Z,22.00
2017-11-22T06:21:45.230Z,22.00
2017-11-22T06:24:12.827Z,22.00
2017-11-22T06:26:40.497Z,22.00
2017-11-22T06:29:09.041Z,22.00
2017-11-22T06:31:36.603Z,22.00
2017-11-22T06:34:04.189Z,22.00
2017-11-22T06:36:31.762Z,22.00
2017-11-22T06:39:05.892Z,22.00
2017-11-22T06:41:34.265Z,22.00
2017-11-22T06:44:02.568Z,22.00
2017-11-22T06:46:30.253Z,22.00
2017-11-22T06:48:57.847Z,22.00
2017-11-22T06:51:25.533Z,22.00
2017-11-22T06:53:53.868Z,22.00
2017-11-22T06:56:21.775Z,22.00
2017-11-22T06:58:50.094Z,22.10
2017-11-22T07:01:17.765Z,22.10
2017-11-22T07:03:51.043Z,22.10
2017-11-22T07:06:18.651Z,22.20
2017-11-22T07:08:46.262Z,22.30
2017-11-22T07:11:13.828Z,22.60
2017-11-22T07:13:41.399Z,22.80
2017-11-22T07:16:08.955Z,22.90
2017-11-22T07:18:36.615Z,23.00
2017-11-22T07:21:04.194Z,23.10
2017-11-22T07:23:31.768Z,23.20
2017-11-22T07:25:59.480Z,23.30
2017-11-22T07:28:27.036Z,23.30
2017-11-22T07:30:54.907Z,23.30
2017-11-22T07:33:22.565Z,23.40
2017-11-22T07:35:55.738Z,23.50
2017-11-22T07:38:23.531Z,23.50
2017-11-22T07:40:51.968Z,23.60
2017-11-22T07:43:20.303Z,23.60
2017-11-22T07:45:48.004Z,23.60
2017-11-22T07:48:16.529Z,23.60
2017-11-22T07:50:45.985Z,23.60
2017-11-22T07:53:14.347Z,23.50
2017-11-22T07:55:41.928Z,23.50
2017-11-22T07:58:10.546Z,23.30
2017-11-22T08:00:38.126Z,23.20
2017-11-22T08:03:08.636Z,23.20
2017-11-22T08:05:36.230Z,23.20
2017-11-22T08:08:04.175Z,23.20
2017-11-22T08:10:31.747Z,23.20
2017-11-22T08:12:59.396Z,23.10
2017-11-22T08:15:26.934Z,23.10
2017-11-22T08:17:54.498Z,23.00
2017-11-22T08:20:22.069Z,23.00
2017-11-22T08:22:49.846Z,23.00
2017-11-22T08:25:23.953Z,23.00
2017-11-22T08:27:51.526Z,22.90
2017-11-22T08:30:19.108Z,22.90
2017-11-22T08:32:46.780Z,22.80
2017-11-22T08:35:15.088Z,22.80
2017-11-22T08:37:42.684Z,22.80
2017-11-22T08:40:10.288Z,22.80
2017-11-22T08:42:38.644Z,22.70
2017-11-22T08:45:07.754Z,22.70
2017-11-22T08:47:35.362Z,22.70
2017-11-22T08:50:03.108Z,22.70
2017-11-22T08:52:31.401Z,22.70
2017-11-22T08:55:04.700Z,22.70
2017-11-22T08:57:37.819Z,22.70
2017-11-22T09:00:11.289Z,22.60
2017-11-22T09:02:39.623Z,22.60
2017-11-22T09:05:10.702Z,22.60
2017-11-22T09:07:38.486Z,22.60
2017-11-22T09:10:06.080Z,22.50
2017-11-22T09:12:39.289Z,22.50
2017-11-22T09:15:07.795Z,22.50
2017-11-22T09:17:35.383Z,22.50
2017-11-22T09:20:06.044Z,22.60
2017-11-22T09:22:33.609Z,22.50
2017-11-22T09:25:03.111Z,22.50
2017-11-22T09:27:37.108Z,22.60
2017-11-22T09:30:10.355Z,22.60
2017-11-22T09:32:39.862Z,22.60
2017-11-22T09:35:07.525Z,22.60
2017-11-22T09:37:35.497Z,22.60
2017-11-22T09:40:03.066Z,22.60
2017-11-22T09:42:30.679Z,22.60
2017-11-22T09:44:59.010Z,22.60
2017-11-22T09:47:26.642Z,22.60
2017-11-22T09:49:54.241Z,22.60
2017-11-22T09:52:21.853Z,22.70
2017-11-22T09:54:49.446Z,22.60
2017-11-22T09:57:16.984Z,22.60
2017-11-22T09:59:44.759Z,22.60
2017-11-22T10:02:12.458Z,22.60
2017-11-22T10:04:40.010Z,22.50
2017-11-22T10:07:07.597Z,22.50
2017-11-22T10:09:35.162Z,22.50
2017-11-22T10:12:03.487Z,22.50
2017-11-22T10:14:31.181Z,22.50
2017-11-22T10:17:04.500Z,22.50
2017-11-22T10:19:38.554Z,22.40
2017-11-22T10:22:06.210Z,22.40
2017-11-22T10:24:33.765Z,22.40
2017-11-22T10:27:07.042Z,22.30
2017-11-22T10:29:40.274Z,22.40
2017-11-22T10:32:07.875Z,22.30
2017-11-22T10:34:36.214Z,22.30
2017-11-22T10:37:03.781Z,22.30
2017-11-22T10:39:31.359Z,22.30
2017-11-22T10:41:58.915Z,22.30
2017-11-22T10:44:26.507Z,22.30
2017-11-22T10:46:54.904Z,22.30
2017-11-22T10:49:22.516Z,22.30
2017-11-22T10:51:50.830Z,22.30
2017-11-22T10:54:18.423Z,22.20
2017-11-22T10:56:45.983Z,22.30
2017-11-22T10:59:13.568Z,22.30
2017-11-22T11:01:41.162Z,22.30
2017-11-22T11:04:09.495Z,22.40
2017-11-22T11:06:37.832Z,22.40
2017-11-22T11:09:05.385Z,22.30
2017-11-22T11:11:32.977Z,22.40
2017-11-22T11:14:00.581Z,22.40
2017-11-22T11:16:29.103Z,22.40
2017-11-22T11:18:56.656Z,22.40
2017-11-22T11:21:24.220Z,22.40
2017-11-22T11:23:51.829Z,22.40
2017-11-22T11:26:19.421Z,22.40
2017-11-22T11:28:46.976Z,22.40
2017-11-22T11:31:15.460Z,22.40
2017-11-22T11:33:43.050Z,22.40
2017-11-22T11:36:22.629Z,22.40
2017-11-22T11:38:50.197Z,22.40
2017-11-22T11:41:19.267Z,22.40
2017-11-22T11:43:46.901Z,22.40
2017-11-22T11:46:14.462Z,22.40
2017-11-22T11:48:42.012Z,22.40
2017-11-22T11:51:09.591Z,22.40
2017-11-22T11:53:37.166Z,22.50
2017-11-22T11:56:04.731Z,22.40
2017-11-22T11:58:32.333Z,22.40
2017-11-22T12:01:00.963Z,22.40
2017-11-22T12:03:28.531Z,22.40
2017-11-22T12:05:56.139Z,22.40
2017-11-22T12:08:23.841Z,22.40
2017-11-22T12:10:51.435Z,22.40
2017-11-22T12:13:19.898Z,22.40
2017-11-22T12:15:47.444Z,22.40
2017-11-22T12:18:17.762Z,22.40
2017-11-22T12:21:04.974Z,22.40
2017-11-22T12:23:35.589Z,22.40
2017-11-22T12:26:03.159Z,22.40
2017-11-22T12:28:30.823Z,22.40
2017-11-22T12:30:58.423Z,22.40
2017-11-22T12:33:26.126Z,22.50
2017-11-22T12:35:53.683Z,22.50
2017-11-22T12:38:24.172Z,22.50
2017-11-22T12:40:52.110Z,22.50
2017-11-22T12:43:19.820Z,22.50
2017-11-22T12:45:48.192Z,22.30
2017-11-22T12:48:15.760Z,22.50
2017-11-22T12:50:44.094Z,22.50
2017-11-22T12:53:11.763Z,22.50
2017-11-22T12:55:39.367Z,22.50
2017-11-22T12:58:14.262Z,22.50
2017-11-22T13:00:41.870Z,22.50
2017-11-22T13:03:10.196Z,22.50
2017-11-22T13:05:37.768Z,22.50
2017-11-22T13:08:05.348Z,22.50
2017-11-22T13:10:33.806Z,22.50
2017-11-22T13:13:01.383Z,22.50
2017-11-22T13:15:29.723Z,22.50
2017-11-22T13:17:57.474Z,22.50
2017-11-22T13:20:25.087Z,22.50
2017-11-22T13:22:52.654Z,22.50
2017-11-22T13:25:20.972Z,22.50
2017-11-22T13:27:48.729Z,22.50
2017-11-22T13:30:16.381Z,22.60
2017-11-22T13:32:44.065Z,22.50
2017-11-22T13:35:11.615Z,22.60
2017-11-22T13:37:39.208Z,22.60
2017-11-22T13:40:06.771Z,22.60
2017-11-22T13:42:35.150Z,22.60
2017-11-22T13:45:02.700Z,22.60
2017-11-22T13:47:30.264Z,22.60
2017-11-22T13:49:57.863Z,22.60
2017-11-22T13:52:26.292Z,22.70
2017-11-22T13:54:53.841Z,22.70
2017-11-22T13:57:21.407Z,22.70
2017-11-22T13:59:48.962Z,22.70
2017-11-22T14:02:16.533Z,22.70
2017-11-22T14:04:44.134Z,22.70
2017-11-22T14:07:12.466Z,22.70
2017-11-22T14:09:40.055Z,22.70
2017-11-22T14:12:07.613Z,22.70
2017-11-22T14:14:35.180Z,22.70
2017-11-22T14:17:02.755Z,22.70
2017-11-22T14:19:31.099Z,22.70
2017-11-22T14:21:58.726Z,22.70
2017-11-22T14:24:26.392Z,22.70
2017-11-22T14:26:53.973Z,22.70
2017-11-22T14:29:21.530Z,22.70
2017-11-22T14:31:49.277Z,22.70
2017-11-22T14:34:16.932Z,22.60
2017-11-22T14:36:44.482Z,22.60
2017-11-22T14:39:12.101Z,22.60
2017-11-22T14:41:39.670Z,22.60
2017-11-22T14:44:07.220Z,22.60
2017-11-22T14:46:34.809Z,22.50
2017-11-22T14:49:03.136Z,22.60
2017-11-22T14:51:30.769Z,22.60
2017-11-22T14:53:58.351Z,22.50
2017-11-22T14:56:25.900Z,22.50
2017-11-22T14:58:53.487Z,22.50
2017-11-22T15:01:21.165Z,22.50
2017-11-22T15:03:48.707Z,22.50
2017-11-22T15:06:16.308Z,22.50
2017-11-22T15:08:44.674Z,22.50
2017-11-22T15:11:12.994Z,22.50
2017-11-22T15:13:40.546Z,22.50
2017-11-22T15:16:08.214Z,22.50
2017-11-22T15:18:35.811Z,22.50
2017-11-22T15:21:03.352Z,22.50
2017-11-22T15:23:30.962Z,22.50
2017-11-22T15:25:59.320Z,22.50
2017-11-22T15:28:26.892Z,22.50
2017-11-22T15:30:55.189Z,22.50
2017-11-22T15:33:22.751Z,22.50
2017-11-22T15:35:50.410Z,22.50
2017-11-22T15:38:17.943Z,22.50
2017-11-22T15:40:46.362Z,22.50
2017-11-22T15:43:13.925Z,22.50
2017-11-22T15:45:41.616Z,22.50
2017-11-22T15:48:09.214Z,22.50
2017-11-22T15:50:37.553Z,22.50
2017-11-22T15:53:05.964Z,22.50
2017-11-22T15:55:34.285Z,22.50
2017-11-22T15:58:01.851Z,22.50
2017-11-22T16:00:29.441Z,22.50
2017-11-22T16:02:57.034Z,22.50
2017-11-22T16:05:25.346Z,22.50
2017-11-22T16:07:53.024Z,22.50
2017-11-22T16:10:20.812Z,22.50
2017-11-22T16:12:48.484Z,22.50
2017-11-22T16:15:16.155Z,22.50
2017-11-22T16:17:43.797Z,22.50
2017-11-22T16:20:11.374Z,22.50
2017-11-22T16:22:39.977Z,22.60
2017-11-22T16:25:07.536Z,22.50
2017-11-22T16:27:35.356Z,22.60
2017-11-22T16:30:03.826Z,22.70
2017-11-22T16:32:31.418Z,22.60
2017-11-22T16:34:59.044Z,22.70
2017-11-22T16:37:26.643Z,22.80
2017-11-22T16:39:54.983Z,22.80
2017-11-22T16:42:22.665Z,22.80
2017-11-22T16:44:50.230Z,22.90
2017-11-22T16:47:18.249Z,22.90
2017-11-22T16:49:45.816Z,22.90
2017-11-22T16:52:13.471Z,23.00
2017-11-22T16:54:41.164Z,23.00
2017-11-22T16:57:08.723Z,23.00
2017-11-22T16:59:36.350Z,23.00
2017-11-22T17:02:03.939Z,23.00
2017-11-22T17:04:31.652Z,23.00
2017-11-22T17:06:59.973Z,23.00
2017-11-22T17:09:27.542Z,23.00
2017-11-22T17:11:55.123Z,23.00
2017-11-22T17:14:22.818Z,23.00
2017-11-22T17:16:50.431Z,23.00
2017-11-22T17:19:18.011Z,22.90
2017-11-22T17:21:45.926Z,22.90
2017-11-22T17:24:13.537Z,22.90
2017-11-22T17:26:41.129Z,22.90
2017-11-22T17:29:08.727Z,22.80
2017-11-22T17:31:36.336Z,22.90
2017-11-22T17:34:04.664Z,22.80
2017-11-22T17:36:32.296Z,22.80
2017-11-22T17:38:59.908Z,22.80
2017-11-22T17:41:28.245Z,22.80
2017-11-22T17:43:55.874Z,22.80
2017-11-22T17:46:24.411Z,22.80
2017-11-22T17:48:52.027Z,22.70
2017-11-22T17:51:19.650Z,22.80
2017-11-22T17:53:47.443Z,22.70
2017-11-22T17:56:15.819Z,22.70
2017-11-22T17:58:44.150Z,22.70
2017-11-22T18:01:12.013Z,22.70
2017-11-22T18:03:39.717Z,22.70
2017-11-22T18:06:08.122Z,22.70
2017-11-22T18:08:35.706Z,22.70
2017-11-22T18:11:03.323Z,22.70
2017-11-22T18:13:31.955Z,22.60
2017-11-22T18:15:59.689Z,22.60
2017-11-22T18:18:27.273Z,22.60
2017-11-22T18:20:54.870Z,22.60
2017-11-22T18:23:22.662Z,22.60
2017-11-22T18:25:52.025Z,22.70
2017-11-22T18:28:19.640Z,22.70
2017-11-22T18:30:47.231Z,22.60
2017-11-22T18:33:14.873Z,22.60
2017-11-22T18:35:42.503Z,22.60
2017-11-22T18:38:11.038Z,22.60
2017-11-22T18:40:38.632Z,22.60
2017-11-22T18:43:06.254Z,22.60
2017-11-22T18:45:34.923Z,22.60
2017-11-22T18:48:03.196Z,22.60
2017-11-22T18:50:30.795Z,22.60
2017-11-22T18:52:59.207Z,22.60
2017-11-22T18:55:28.262Z,22.60
2017-11-22T18:57:57.061Z,22.60
2017-11-22T19:00:24.731Z,22.60
2017-11-22T19:02:54.495Z,22.60
2017-11-22T19:05:23.440Z,22.60
2017-11-22T19:07:51.560Z,22.60
2017-11-22T19:10:19.259Z,22.60
2017-11-22T19:12:47.519Z,22.60
2017-11-22T19:15:15.110Z,22.60
2017-11-22T19:17:43.319Z,22.60
2017-11-22T19:20:11.201Z,22.60
2017-11-22T19:22:38.783Z,22.60
2017-11-22T19:25:06.416Z,22.60
2017-11-22T19:27:34.049Z,22.60
2017-11-22T19:30:03.772Z,22.70
2017-11-22T19:32:31.931Z,22.70
2017-11-22T19:35:04.237Z,22.70
2017-11-22T19:37:34.384Z,22.70
2017-11-22T19:40:02.617Z,22.70
2017-11-22T19:42:30.263Z,22.70
2017-11-22T19:44:59.515Z,22.70
2017-11-22T19:47:27.690Z,22.70
2017-11-22T19:49:56.778Z,22.70
2017-11-22T19:52:25.333Z,22.70
2017-11-22T19:54:53.896Z,22.70
2017-11-22T19:57:22.825Z,22.70
2017-11-22T19:59:52.058Z,22.70
2017-11-22T20:02:20.352Z,22.70
2017-11-22T20:04:47.965Z,22.70
2017-11-22T20:07:27.520Z,22.80
2017-11-22T20:09:55.151Z,22.80
2017-11-22T20:12:23.843Z,22.80
2017-11-22T20:14:51.488Z,22.80
2017-11-22T20:17:19.923Z,22.80
2017-11-22T20:19:47.781Z,22.90
2017-11-22T20:22:15.764Z,22.90
2017-11-22T20:24:44.152Z,22.90
2017-11-22T20:27:12.524Z,22.90
2017-11-22T20:29:41.045Z,22.90
2017-11-22T20:32:09.264Z,22.90
2017-11-22T20:34:36.859Z,22.90
2017-11-22T20:37:06.432Z,22.90
2017-11-22T20:39:34.686Z,22.90
2017-11-22T20:42:03.065Z,22.90
2017-11-22T20:44:30.678Z,22.90
2017-11-22T20:46:59.047Z,23.00
2017-11-22T20:49:26.741Z,22.90
2017-11-22T20:51:56.058Z,23.00
2017-11-22T20:54:25.053Z,23.00
2017-11-22T20:56:55.179Z,23.00
2017-11-22T20:59:22.808Z,22.90
2017-11-22T21:01:50.461Z,23.00
2017-11-22T21:04:20.716Z,23.00
2017-11-22T21:06:48.865Z,22.90
2017-11-22T21:09:17.231Z,23.00
2017-11-22T21:11:46.569Z,23.00
2017-11-22T21:14:14.923Z,23.00
2017-11-22T21:16:42.513Z,23.00
2017-11-22T21:19:12.117Z,23.00
2017-11-22T21:21:40.501Z,23.00
2017-11-22T21:24:08.117Z,23.00
2017-11-22T21:26:37.377Z,23.00
2017-11-22T21:29:05.750Z,23.00
2017-11-22T21:31:34.170Z,23.00
2017-11-22T21:34:02.649Z,23.00
2017-11-22T21:36:31.175Z,23.00
2017-11-22T21:38:59.595Z,23.00
2017-11-22T21:41:27.215Z,23.00
2017-11-22T21:43:54.831Z,23.00
2017-11-22T21:46:22.427Z,22.90
2017-11-22T21:48:50.404Z,22.90
2017-11-22T21:51:18.016Z,22.90
2017-11-22T21:53:46.249Z,22.90
2017-11-22T21:56:13.828Z,22.90
2017-11-22T21:58:41.527Z,22.90
2017-11-22T22:01:10.794Z,22.90
2017-11-22T22:03:38.372Z,22.90
2017-11-22T22:06:05.980Z,22.90
2017-11-22T22:08:34.654Z,22.90
2017-11-22T22:11:02.262Z,22.80
2017-11-22T22:13:29.900Z,22.90
2017-11-22T22:15:57.531Z,22.90
2017-11-22T22:18:25.141Z,22.80
2017-11-22T22:20:52.756Z,22.80
2017-11-22T22:23:20.408Z,22.80
2017-11-22T22:25:48.740Z,22.80
2017-11-22T22:28:16.412Z,22.80
2017-11-22T22:30:43.959Z,22.80
2017-11-22T22:33:11.558Z,22.80
2017-11-22T22:35:40.042Z,22.80
2017-11-22T22:38:08.399Z,22.80
2017-11-22T22:40:36.724Z,22.80
2017-11-22T22:43:04.314Z,22.80
2017-11-22T22:45:31.886Z,22.70
2017-11-22T22:47:59.443Z,22.70
2017-11-22T22:50:27.028Z,22.80
2017-11-22T22:52:54.584Z,22.70
2017-11-22T22:55:22.166Z,22.70
2017-11-22T22:57:50.490Z,22.70
2017-11-22T23:00:18.080Z,22.70
2017-11-22T23:02:45.673Z,22.70
2017-11-22T23:05:13.247Z,22.70
2017-11-22T23:07:40.794Z,22.70
2017-11-22T23:10:08.388Z,22.60
2017-11-22T23:12:36.092Z,22.70
2017-11-22T23:15:04.441Z,22.70
2017-11-22T23:17:31.989Z,22.60
2017-11-22T23:19:59.704Z,22.60
2017-11-22T23:22:28.028Z,22.60
2017-11-22T23:24:55.601Z,22.60
2017-11-22T23:27:23.232Z,22.60
2017-11-22T23:29:50.892Z,22.60
2017-11-22T23:32:18.459Z,22.60
2017-11-22T23:34:45.997Z,22.60
2017-11-22T23:37:13.614Z,22.60
2017-11-22T23:39:41.956Z,22.60
2017-11-22T23:42:09.548Z,22.60
2017-11-22T23:44:37.250Z,22.60
2017-11-22T23:47:04.813Z,22.60
2017-11-22T23:49:32.414Z,22.60
2017-11-22T23:51:59.976Z,22.60
2017-11-22T23:54:27.554Z,22.60
2017-11-22T23:56:56.802Z,22.60
2017-11-22T23:59:24.354Z,22.60
